Terminal Aerodrome Forecast
Issued by NWS

Home | Current Version | Previous Version | Text Only | Print | Product List | Glossary On
Versions: 1 2 3 4 5 6 7 8 9 10 11 12 13 14 15 16 17 18
000
FTUS43 KDVN 251700 RRA
TAFBRL
TAF
KBRL 251759Z 2518/2618 19005KT P6SM SCT120
     FM252000 24006KT P6SM FEW030 SCT120
     FM260600 33006KT 6SM BR SCT025 BKN060
     FM261200 01006KT P6SM VCSH SCT030 BKN100=

USA.gov is the U.S. government's official web portal to all federal, state and local government web resources and services.